Time;durP1;ratioP1;P1;durP2;ratioP2;P2;SDS_P1;SDS_P2;PMS_P1;PMS_P2;Temp;Humidity;BMP_temperature;BMP_pressure;BME280_temperature;BME280_humidity;BME280_pressure;Samples;Min_cycle;Max_cycle;Signal;HPM_P1;HPM_P2
2023/06/30 00:08:04;;;;;;;;;;;;;;;22.68;49.15;100140.97;41742470;28;19970;-77
2023/06/30 00:28:10;;;;;;;;;;;;;;;22.49;49.46;100133.84;41722304;28;19929;-78
2023/06/30 00:48:11;;;;;;;;;;;;;;;22.31;49.85;100125.66;41750049;28;19925;-77
2023/06/30 01:08:27;;;;;;;;;;;;;;;22.22;50.01;100113.28;41729815;28;19925;-78
2023/06/30 01:28:28;;;;;;;;;;;;;;;22.04;50.12;100113.06;41755133;28;19976;-79
2023/06/30 01:48:29;;;;;;;;;;;;;;;21.94;50.29;100106.94;41712097;28;20409;-79
2023/06/30 02:08:29;;;;;;;;;;;;;;;21.81;50.55;100107.94;41740097;28;19933;-79
2023/06/30 02:28:29;;;;;;;;;;;;;;;21.68;50.71;100097.63;41741966;28;20000;-79
2023/06/30 02:48:30;;;;;;;;;;;;;;;21.58;50.73;100083.53;41731605;28;19933;-80
2023/06/30 03:08:30;;;;;;;;;;;;;;;21.44;51.32;100101.28;41742853;28;20416;-79
2023/06/30 03:28:30;;;;;;;;;;;;;;;21.35;51.50;100090.69;41738840;28;20004;-80
2023/06/30 03:48:30;;;;;;;;;;;;;;;21.32;51.67;100089.13;41744461;28;20419;-80
2023/06/30 04:08:31;;;;;;;;;;;;;;;21.33;51.93;100095.25;41748543;28;20405;-79
2023/06/30 04:28:31;;;;;;;;;;;;;;;21.28;51.16;100090.38;41776004;28;20399;-81
2023/06/30 04:48:33;;;;;;;;;;;;;;;21.78;50.68;100081.84;41763764;28;19945;-77
2023/06/30 05:08:33;;;;;;;;;;;;;;;22.23;50.73;100067.50;41757056;28;19931;-82
2023/06/30 05:28:34;;;;;;;;;;;;;;;22.51;50.66;100071.22;41768010;28;19940;-85
2023/06/30 05:48:34;;;;;;;;;;;;;;;22.72;49.89;100065.00;41799353;28;20316;-82
2023/06/30 06:08:38;;;;;;;;;;;;;;;22.92;49.84;100073.75;41769948;28;19954;-85
2023/06/30 06:28:38;;;;;;;;;;;;;;;23.12;49.50;100069.34;41771642;28;19936;-83
2023/06/30 06:48:38;;;;;;;;;;;;;;;23.27;49.47;100058.38;41749669;28;20476;-76
2023/06/30 07:08:39;;;;;;;;;;;;;;;23.38;49.22;100046.84;41714194;28;19925;-76
2023/06/30 07:28:39;;;;;;;;;;;;;;;23.46;48.96;100049.56;41731772;28;19932;-76
2023/06/30 07:48:41;;;;;;;;;;;;;;;23.55;48.60;100037.34;41760099;28;21291;-77
2023/06/30 08:08:43;;;;;;;;;;;;;;;23.63;48.79;100019.78;41769004;28;19924;-77
2023/06/30 08:28:43;;;;;;;;;;;;;;;23.73;43.17;100013.63;41812275;28;19929;-80
2023/06/30 08:48:44;;;;;;;;;;;;;;;23.75;43.95;100001.91;41820710;28;19921;-80
2023/06/30 09:08:59;;;;;;;;;;;;;;;23.81;43.61;99995.22;41848302;28;19965;-83
2023/06/30 09:28:59;;;;;;;;;;;;;;;23.88;43.97;99976.97;41811380;28;19928;-77
2023/06/30 09:49:04;;;;;;;;;;;;;;;23.96;42.19;99951.50;41720872;28;19940;-77
2023/06/30 10:09:05;;;;;;;;;;;;;;;24.11;42.09;99956.28;41772865;28;19933;-81
2023/06/30 10:29:05;;;;;;;;;;;;;;;24.19;41.35;99944.94;41775388;28;19936;-77
2023/06/30 10:49:16;;;;;;;;;;;;;;;24.32;40.62;99934.00;41766206;28;19929;-79
2023/06/30 11:09:16;;;;;;;;;;;;;;;24.60;39.26;99921.53;41773534;28;20028;-82
2023/06/30 11:29:17;;;;;;;;;;;;;;;24.90;38.67;99890.31;41766058;28;19932;-85
2023/06/30 11:49:17;;;;;;;;;;;;;;;25.20;38.87;99874.94;41737563;28;20373;-82
2023/06/30 12:09:19;;;;;;;;;;;;;;;25.50;38.95;99851.56;41729992;28;19935;-86
2023/06/30 12:29:20;;;;;;;;;;;;;;;25.61;40.30;99835.38;41758711;28;20435;-77
2023/06/30 12:49:20;;;;;;;;;;;;;;;25.66;39.28;99816.31;41771310;28;19987;-78
2023/06/30 13:09:20;;;;;;;;;;;;;;;25.76;39.74;99798.44;41788721;28;20374;-78
2023/06/30 13:29:21;;;;;;;;;;;;;;;25.87;40.36;99781.41;41754186;28;19951;-79
2023/06/30 13:49:21;;;;;;;;;;;;;;;26.05;40.12;99744.91;41722542;28;20369;-81
2023/06/30 14:09:22;;;;;;;;;;;;;;;26.18;39.32;99717.06;41707294;28;19936;-79
2023/06/30 14:29:24;;;;;;;;;;;;;;;26.29;39.25;99684.06;41731330;28;19933;-78
2023/06/30 14:49:30;;;;;;;;;;;;;;;26.30;38.05;99662.63;41677386;28;20397;-79
2023/06/30 15:09:31;;;;;;;;;;;;;;;26.50;36.15;99628.56;41673725;28;19933;-75
2023/06/30 15:29:31;;;;;;;;;;;;;;;26.49;37.32;99620.78;41661177;28;19932;-81
2023/06/30 15:49:31;;;;;;;;;;;;;;;26.48;37.24;99593.41;41695856;28;19929;-79
2023/06/30 16:09:32;;;;;;;;;;;;;;;26.41;37.85;99584.47;41761912;28;19970;-77
2023/06/30 16:29:36;;;;;;;;;;;;;;;26.35;37.53;99579.84;41779936;28;19978;-78
2023/06/30 16:49:37;;;;;;;;;;;;;;;26.31;37.16;99568.75;41755649;28;19929;-75
2023/06/30 17:09:37;;;;;;;;;;;;;;;26.26;37.01;99564.97;41778522;28;19929;-77
2023/06/30 17:29:38;;;;;;;;;;;;;;;26.18;37.01;99568.47;41807028;28;19937;-78
2023/06/30 17:49:38;;;;;;;;;;;;;;;26.12;38.78;99571.81;41786633;28;19932;-83
2023/06/30 18:09:40;;;;;;;;;;;;;;;26.10;35.87;99563.19;41768979;28;19979;-79
2023/06/30 18:29:41;;;;;;;;;;;;;;;26.03;37.68;99563.84;41713056;28;19981;-86
2023/06/30 18:49:42;;;;;;;;;;;;;;;25.93;36.92;99576.50;41703803;28;19933;-79
2023/06/30 19:09:45;;;;;;;;;;;;;;;25.85;36.83;99595.91;41726211;28;20389;-77
2023/06/30 19:29:47;;;;;;;;;;;;;;;25.80;38.65;99614.13;41740647;28;19974;-77
2023/06/30 19:49:47;;;;;;;;;;;;;;;25.83;39.79;99607.66;41745691;28;19932;-85
2023/06/30 20:09:48;;;;;;;;;;;;;;;25.83;40.50;99607.66;41785884;28;19935;-81
2023/06/30 20:29:49;;;;;;;;;;;;;;;25.80;40.52;99613.31;41793715;28;20037;-81
2023/06/30 20:49:49;;;;;;;;;;;;;;;25.75;41.15;99616.47;41769519;28;19929;-83
2023/06/30 21:09:49;;;;;;;;;;;;;;;25.71;41.43;99626.59;41799378;28;19931;-80
2023/06/30 21:29:50;;;;;;;;;;;;;;;25.68;41.35;99618.13;41834729;28;19955;-79
2023/06/30 21:49:54;;;;;;;;;;;;;;;25.66;41.72;99604.22;41805797;28;20011;-80
2023/06/30 22:09:54;;;;;;;;;;;;;;;25.63;42.00;99607.22;41815331;28;20385;-80
2023/06/30 22:29:54;;;;;;;;;;;;;;;25.59;42.15;99603.25;41791827;28;19929;-81
2023/06/30 22:49:55;;;;;;;;;;;;;;;25.56;42.21;99594.63;41785523;28;20426;-81
2023/06/30 23:09:55;;;;;;;;;;;;;;;25.54;42.12;99586.00;41769775;28;19933;-80
2023/06/30 23:29:56;;;;;;;;;;;;;;;25.51;42.24;99580.22;41789801;28;19925;-80
2023/06/30 23:49:58;;;;;;;;;;;;;;;25.50;42.50;99584.69;41774208;28;19932;-82
